Terminal Aerodrome Forecast
Issued by NWS

Home | Current Version | Previous Version | Text Only | Print | Product List | Glossary On
Versions: 1 2 3 4 5 6 7 8 9 10 11 12 13 14 15 16 17 18
000
FTUS45 KVEF 281700
TAFDAG
TAF
KDAG 281720Z 2818/2918 32005KT P6SM OVC200
     FM282000 06006KT P6SM OVC200
     FM290200 VRB05KT P6SM OVC200
     FM290700 27006KT P6SM OVC150=

USA.gov is the U.S. government's official web portal to all federal, state and local government web resources and services.